createdAt,value
2019-06-10T00:00:21.847Z,99984.02
2019-06-10T00:02:52.408Z,99978.42
2019-06-10T00:05:22.646Z,99968.50
2019-06-10T00:07:52.868Z,99974.75
2019-06-10T00:10:23.328Z,99960.55
2019-06-10T00:12:55.371Z,99963.41
2019-06-10T00:15:25.957Z,99975.70
2019-06-10T00:18:20.834Z,99977.00
2019-06-10T00:20:30.455Z,99970.91
2019-06-10T00:23:02.508Z,99973.11
2019-06-10T00:25:32.108Z,99973.62
2019-06-10T00:28:05.668Z,99963.84
2019-06-10T00:30:35.431Z,99971.70
2019-06-10T00:33:06.515Z,99972.53
2019-06-10T00:35:38.115Z,99964.67
2019-06-10T00:38:09.328Z,99973.52
2019-06-10T00:40:41.519Z,99968.23
2019-06-10T00:43:13.575Z,99966.23
2019-06-10T00:45:44.120Z,99966.28
2019-06-10T00:48:25.234Z,99962.17
2019-06-10T00:50:46.599Z,99962.72
2019-06-10T00:53:16.887Z,99960.65
2019-06-10T00:55:47.100Z,99964.89
2019-06-10T00:58:17.306Z,99957.79
2019-06-10T01:00:47.833Z,99964.52
2019-06-10T01:03:20.732Z,99966.67
2019-06-10T01:05:50.933Z,99977.80
2019-06-10T01:08:21.642Z,99971.86
2019-06-10T01:10:52.385Z,99978.64
2019-06-10T01:13:22.712Z,99978.78
2019-06-10T01:15:53.009Z,99974.16
2019-06-10T01:18:34.443Z,99964.70
2019-06-10T01:20:55.253Z,99956.48
2019-06-10T01:23:25.519Z,99951.42
2019-06-10T01:25:55.769Z,99957.38
2019-06-10T01:28:26.112Z,99936.06
2019-06-10T01:30:56.315Z,99940.05
2019-06-10T01:33:26.617Z,99941.81
2019-06-10T01:35:56.857Z,99949.93
2019-06-10T01:38:27.166Z,99958.12
2019-06-10T01:40:57.406Z,99959.28
2019-06-10T01:43:27.723Z,99959.70
2019-06-10T01:45:58.150Z,99958.38
2019-06-10T01:48:40.525Z,99954.77
2019-06-10T01:51:01.817Z,99935.65
2019-06-10T01:53:32.345Z,99917.95
2019-06-10T01:56:02.873Z,99909.64
2019-06-10T01:58:33.238Z,99913.57
2019-06-10T02:01:08.438Z,99909.30
2019-06-10T02:03:41.506Z,99898.66
2019-06-10T02:06:16.049Z,99899.33
2019-06-10T02:08:43.987Z,99906.42
2019-06-10T02:11:17.316Z,99900.95
2019-06-10T02:13:47.423Z,99916.27
2019-06-10T02:16:19.021Z,99919.25
2019-06-10T02:19:00.149Z,99925.42
2019-06-10T02:21:24.315Z,99939.35
2019-06-10T02:23:53.634Z,99942.08
2019-06-10T02:26:23.903Z,99945.66
2019-06-10T02:28:54.122Z,99945.45
2019-06-10T02:31:30.017Z,99944.32
2019-06-10T02:33:56.350Z,99931.09
2019-06-10T02:36:31.042Z,99923.91
2019-06-10T02:38:58.653Z,99922.50
2019-06-10T02:41:32.169Z,99925.61
2019-06-10T02:44:03.969Z,99933.17
2019-06-10T02:46:36.001Z,99941.88
2019-06-10T02:49:20.714Z,99944.62
2019-06-10T02:51:37.819Z,99938.14
2019-06-10T02:54:08.061Z,99942.34
2019-06-10T02:56:38.309Z,99945.34
2019-06-10T02:59:08.592Z,99943.90
2019-06-10T03:01:43.575Z,99943.12
2019-06-10T03:04:13.757Z,99936.12
2019-06-10T03:06:44.807Z,99942.09
2019-06-10T03:09:16.529Z,99939.84
2019-06-10T03:11:47.346Z,99936.45
2019-06-10T03:14:17.767Z,99942.73
2019-06-10T03:16:52.784Z,99942.75
2019-06-10T03:19:39.667Z,99935.80
2019-06-10T03:21:54.468Z,99927.16
2019-06-10T03:24:25.337Z,99923.42
2019-06-10T03:26:55.796Z,99917.59
2019-06-10T03:29:26.877Z,99909.39
2019-06-10T03:31:58.089Z,99912.75
2019-06-10T03:34:36.295Z,99910.36
2019-06-10T03:37:02.326Z,99892.06
2019-06-10T03:39:32.363Z,99883.77
2019-06-10T03:42:02.742Z,99882.50
2019-06-10T03:44:33.114Z,99878.15
2019-06-10T03:47:03.418Z,99883.55
2019-06-10T03:49:48.744Z,99881.20
2019-06-10T03:52:05.641Z,99860.24
2019-06-10T03:54:35.918Z,99855.08
2019-06-10T03:57:06.247Z,99859.72
2019-06-10T03:59:36.569Z,99854.17
2019-06-10T04:02:06.899Z,99851.38
2019-06-10T04:04:37.347Z,99843.38
2019-06-10T04:07:07.640Z,99839.88
2019-06-10T04:09:38.104Z,99833.94
2019-06-10T04:12:08.399Z,99827.14
2019-06-10T04:14:38.655Z,99810.08
2019-06-10T04:17:08.979Z,99794.10
2019-06-10T04:19:39.182Z,99787.81
2019-06-10T04:22:09.632Z,99789.05
2019-06-10T04:24:39.998Z,99786.20
2019-06-10T04:27:12.279Z,99787.02
2019-06-10T04:29:42.289Z,99798.95
2019-06-10T04:32:12.561Z,99801.92
2019-06-10T04:34:43.428Z,99809.08
2019-06-10T04:37:13.715Z,99809.33
2019-06-10T04:39:43.996Z,99804.21
2019-06-10T04:42:14.324Z,99810.84
2019-06-10T04:44:44.687Z,99818.14
2019-06-10T04:47:15.013Z,99822.88
2019-06-10T04:49:45.231Z,99833.78
2019-06-10T04:52:15.736Z,99831.72
2019-06-10T04:54:46.070Z,99837.25
2019-06-10T04:57:16.404Z,99840.31
2019-06-10T04:59:46.673Z,99839.41
2019-06-10T05:02:17.072Z,99845.02
2019-06-10T05:04:47.369Z,99846.91
2019-06-10T05:07:18.919Z,99847.56
2019-06-10T05:09:49.328Z,99853.88
2019-06-10T05:12:22.342Z,99854.75
2019-06-10T05:14:52.664Z,99872.22
2019-06-10T05:17:26.121Z,99883.28
2019-06-10T05:19:54.987Z,99892.02
2019-06-10T05:22:26.621Z,99891.98
2019-06-10T05:24:57.478Z,99899.30
2019-06-10T05:27:28.597Z,99908.48
2019-06-10T05:29:58.910Z,99912.09
2019-06-10T05:32:30.475Z,99917.11
2019-06-10T05:35:03.519Z,99916.77
2019-06-10T05:37:34.415Z,99917.34
2019-06-10T05:40:12.582Z,99916.17
2019-06-10T05:42:42.723Z,99909.56
2019-06-10T05:45:13.029Z,99908.15
2019-06-10T05:47:43.387Z,99912.77
2019-06-10T05:50:13.699Z,99911.81
2019-06-10T05:52:44.017Z,99914.23
2019-06-10T05:55:14.350Z,99917.80
2019-06-10T05:57:44.676Z,99915.58
2019-06-10T06:00:15.219Z,99911.64
2019-06-10T06:02:45.411Z,99912.69
2019-06-10T06:05:15.752Z,99908.53
2019-06-10T06:07:58.916Z,99908.70
2019-06-10T06:10:19.160Z,99906.23
2019-06-10T06:12:49.471Z,99901.73
2019-06-10T06:15:21.984Z,99898.82
2019-06-10T06:18:06.096Z,99902.13
2019-06-10T06:20:23.614Z,99897.03
2019-06-10T06:22:53.828Z,99898.27
2019-06-10T06:25:24.305Z,99895.11
2019-06-10T06:27:54.557Z,99897.52
2019-06-10T06:30:26.091Z,99905.30
2019-06-10T06:32:56.674Z,99898.09
2019-06-10T06:35:26.910Z,99890.94
2019-06-10T06:37:57.211Z,99879.87
2019-06-10T06:40:27.597Z,99879.39
2019-06-10T06:42:57.882Z,99877.22
2019-06-10T06:45:28.104Z,99885.42
2019-06-10T06:47:58.329Z,99892.53
2019-06-10T06:50:28.655Z,99892.23
2019-06-10T06:53:19.753Z,99894.69
2019-06-10T06:55:33.762Z,99892.64
2019-06-10T06:58:04.133Z,99890.38
2019-06-10T07:00:52.969Z,99888.00
2019-06-10T07:03:07.456Z,99892.29
2019-06-10T07:05:38.966Z,99890.61
2019-06-10T07:08:09.874Z,99882.97
2019-06-10T07:10:41.444Z,99884.84
2019-06-10T07:13:12.905Z,99880.53
2019-06-10T07:15:47.053Z,99887.97
2019-06-10T07:18:17.722Z,99892.66
2019-06-10T07:20:48.129Z,99887.50
2019-06-10T07:23:18.320Z,99885.78
2019-06-10T07:25:48.706Z,99877.98
2019-06-10T07:28:19.093Z,99882.08
2019-06-10T07:30:52.788Z,99879.44
2019-06-10T07:33:22.687Z,99881.25
2019-06-10T07:35:56.442Z,99880.24
2019-06-10T07:38:26.278Z,99880.64
2019-06-10T07:40:56.965Z,99871.45
2019-06-10T07:43:27.260Z,99869.36
2019-06-10T07:45:57.520Z,99869.00
2019-06-10T07:48:27.941Z,99869.34
2019-06-10T07:50:58.288Z,99860.45
2019-06-10T07:53:28.652Z,99859.92
2019-06-10T07:55:58.899Z,99856.91
2019-06-10T07:58:29.146Z,99855.47
2019-06-10T08:00:59.442Z,99852.25
2019-06-10T08:03:29.771Z,99853.45
2019-06-10T08:06:00.203Z,99854.02
2019-06-10T08:08:32.943Z,99853.38
2019-06-10T08:11:03.730Z,99851.58
2019-06-10T08:13:35.186Z,99846.46
2019-06-10T08:16:05.517Z,99856.06
2019-06-10T08:18:41.838Z,99854.51
2019-06-10T08:21:07.639Z,99850.69
2019-06-10T08:23:38.582Z,99851.87
2019-06-10T08:26:08.945Z,99852.88
2019-06-10T08:28:39.662Z,99849.73
2019-06-10T08:31:12.166Z,99854.06
2019-06-10T08:33:44.304Z,99856.63
2019-06-10T08:36:13.856Z,99855.30
2019-06-10T08:38:46.830Z,99845.12
2019-06-10T08:41:16.088Z,99850.72
2019-06-10T08:43:48.412Z,99855.35
2019-06-10T08:46:18.302Z,99852.25
2019-06-10T08:48:49.606Z,99855.69
2019-06-10T08:51:19.899Z,99860.66
2019-06-10T08:53:52.922Z,99869.66
2019-06-10T08:56:22.522Z,99869.27
2019-06-10T08:58:54.075Z,99861.03
2019-06-10T09:01:24.548Z,99845.63
2019-06-10T09:03:54.818Z,99844.67
2019-06-10T09:06:25.033Z,99838.88
2019-06-10T09:08:55.507Z,99837.88
2019-06-10T09:11:25.856Z,99842.06
2019-06-10T09:13:56.079Z,99839.79
2019-06-10T09:16:26.339Z,99839.27
2019-06-10T09:18:56.567Z,99837.16
2019-06-10T09:21:26.773Z,99840.61
2019-06-10T09:24:00.464Z,99840.77
2019-06-10T09:26:33.487Z,99846.44
2019-06-10T09:29:03.008Z,99846.70
2019-06-10T09:31:33.474Z,99829.72
2019-06-10T09:34:04.126Z,99809.58
2019-06-10T09:36:34.372Z,99797.35
2019-06-10T09:39:05.423Z,99794.33
2019-06-10T09:41:40.201Z,99799.30
2019-06-10T09:44:07.618Z,99794.64
2019-06-10T09:46:37.835Z,99791.36
2019-06-10T09:49:08.053Z,99777.56
2019-06-10T09:51:38.269Z,99771.44
2019-06-10T09:54:08.547Z,99769.42
2019-06-10T09:56:38.750Z,99769.73
2019-06-10T09:59:12.499Z,99761.05
2019-06-10T10:01:47.009Z,99753.17
2019-06-10T10:04:14.749Z,99737.69
2019-06-10T10:06:49.085Z,99725.21
2019-06-10T10:09:16.880Z,99727.97
2019-06-10T10:11:48.907Z,99745.27
2019-06-10T10:14:19.153Z,99751.94
2019-06-10T10:16:54.954Z,99753.73
2019-06-10T10:19:23.158Z,99758.82
2019-06-10T10:21:58.178Z,99763.23
2019-06-10T10:24:25.456Z,99765.60
2019-06-10T10:26:58.007Z,99767.20
2019-06-10T10:29:27.720Z,99763.33
2019-06-10T10:31:57.985Z,99753.69
2019-06-10T10:34:28.202Z,99754.39
2019-06-10T10:36:59.364Z,99747.19
2019-06-10T10:39:29.591Z,99748.03
2019-06-10T10:41:59.771Z,99737.16
2019-06-10T10:44:30.080Z,99735.27
2019-06-10T10:47:00.289Z,99727.88
2019-06-10T10:49:30.605Z,99716.31
2019-06-10T10:52:02.668Z,99711.49
2019-06-10T10:54:36.476Z,99709.55
2019-06-10T10:57:04.819Z,99714.34
2019-06-10T10:59:35.118Z,99723.36
2019-06-10T11:02:05.346Z,99718.48
2019-06-10T11:04:35.747Z,99717.34
2019-06-10T11:07:05.958Z,99718.53
2019-06-10T11:09:36.199Z,99723.02
2019-06-10T11:12:06.460Z,99735.34
2019-06-10T11:14:36.838Z,99724.02
2019-06-10T11:17:07.175Z,99692.61
2019-06-10T11:19:37.478Z,99642.33
2019-06-10T11:22:07.747Z,99596.95
2019-06-10T11:24:42.319Z,99538.80
2019-06-10T11:27:12.138Z,99523.42
2019-06-10T11:29:42.329Z,99515.20
2019-06-10T11:32:12.705Z,99548.36
2019-06-10T11:34:43.011Z,99599.47
2019-06-10T11:37:13.348Z,99642.64
2019-06-10T11:39:43.718Z,99660.48
2019-06-10T11:42:13.981Z,99664.09
2019-06-10T11:44:44.158Z,99680.68
2019-06-10T11:47:14.465Z,99690.88
2019-06-10T11:49:44.757Z,99701.45
2019-06-10T11:52:15.222Z,99706.09
2019-06-10T11:54:55.713Z,99713.87
2019-06-10T11:57:18.313Z,99722.06
2019-06-10T11:59:48.596Z,99705.98
2019-06-10T12:02:18.881Z,99705.67
2019-06-10T12:04:49.084Z,99704.50
2019-06-10T12:07:19.324Z,99687.73
2019-06-10T12:09:51.541Z,99671.64
2019-06-10T12:12:22.099Z,99659.59
2019-06-10T12:14:55.281Z,99652.78
2019-06-10T12:17:41.023Z,99661.31
2019-06-10T12:19:59.387Z,99663.13
2019-06-10T12:22:28.123Z,99657.43
2019-06-10T12:25:24.921Z,99648.31
2019-06-10T12:27:32.423Z,99656.50
2019-06-10T12:30:04.982Z,99642.03
2019-06-10T12:32:34.485Z,99620.28
2019-06-10T12:35:06.387Z,99608.41
2019-06-10T12:37:36.909Z,99599.54
2019-06-10T12:40:14.009Z,99603.79
2019-06-10T12:42:44.255Z,99604.18
2019-06-10T12:45:14.607Z,99593.63
2019-06-10T12:47:44.933Z,99606.25
2019-06-10T12:50:15.198Z,99594.16
2019-06-10T12:52:45.418Z,99586.05
2019-06-10T12:55:15.688Z,99589.97
2019-06-10T12:57:45.903Z,99586.37
2019-06-10T13:00:22.674Z,99580.53
2019-06-10T13:02:48.650Z,99590.38
2019-06-10T13:05:18.927Z,99607.44
2019-06-10T13:07:49.197Z,99613.87
2019-06-10T13:10:35.491Z,99617.53
2019-06-10T13:13:08.744Z,99616.71
2019-06-10T13:15:37.814Z,99634.95
2019-06-10T13:18:13.549Z,99647.08
2019-06-10T13:20:40.011Z,99661.83
2019-06-10T13:23:20.358Z,99679.48
2019-06-10T13:25:51.252Z,99697.67
2019-06-10T13:28:14.022Z,99694.63
2019-06-10T13:30:44.355Z,99702.97
2019-06-10T13:33:15.522Z,99705.38
2019-06-10T13:35:45.751Z,99702.75
2019-06-10T13:38:15.980Z,99702.19
2019-06-10T13:40:46.378Z,99693.25
2019-06-10T13:43:16.583Z,99684.70
2019-06-10T13:45:46.887Z,99675.31
2019-06-10T13:48:17.215Z,99676.15
2019-06-10T13:50:47.457Z,99662.94
2019-06-10T13:53:17.672Z,99657.93
2019-06-10T13:55:47.898Z,99648.93
2019-06-10T13:58:18.096Z,99639.42
2019-06-10T14:00:48.300Z,99643.48
2019-06-10T14:03:18.487Z,99640.38
2019-06-10T14:05:48.812Z,99620.99
2019-06-10T14:08:19.064Z,99608.30
2019-06-10T14:10:49.293Z,99602.39
2019-06-10T14:13:23.238Z,99586.33
2019-06-10T14:15:53.405Z,99570.53
2019-06-10T14:18:24.259Z,99560.59
2019-06-10T14:20:54.505Z,99552.22
2019-06-10T14:23:24.693Z,99535.25
2019-06-10T14:25:54.928Z,99540.98
2019-06-10T14:28:39.772Z,99528.05
2019-06-10T14:30:57.127Z,99523.60
2019-06-10T14:33:27.348Z,99525.62
2019-06-10T14:35:57.566Z,99546.22
2019-06-10T14:38:27.832Z,99559.63
2019-06-10T14:40:58.135Z,99566.99
2019-06-10T14:43:28.329Z,99580.70
2019-06-10T14:45:58.574Z,99592.45
2019-06-10T14:48:28.899Z,99590.81
2019-06-10T14:50:59.110Z,99596.32
2019-06-10T14:53:29.319Z,99599.02
2019-06-10T14:55:59.572Z,99605.05
2019-06-10T14:58:29.790Z,99620.64
2019-06-10T15:00:59.995Z,99619.13
2019-06-10T15:03:32.796Z,99617.05
2019-06-10T15:06:03.393Z,99613.55
2019-06-10T15:08:34.752Z,99607.55
2019-06-10T15:11:04.946Z,99602.20
2019-06-10T15:13:35.168Z,99591.14
2019-06-10T15:16:05.524Z,99587.09
2019-06-10T15:18:35.720Z,99583.91
2019-06-10T15:21:06.906Z,99585.41
2019-06-10T15:23:37.143Z,99582.78
2019-06-10T15:26:07.971Z,99577.67
2019-06-10T15:28:38.231Z,99573.19
2019-06-10T15:31:08.440Z,99579.42
2019-06-10T15:33:38.679Z,99583.01
2019-06-10T15:36:09.144Z,99578.66
2019-06-10T15:38:40.256Z,99581.87
2019-06-10T15:41:15.034Z,99577.66
2019-06-10T15:43:42.466Z,99576.69
2019-06-10T15:46:14.506Z,99581.92
2019-06-10T15:48:44.725Z,99571.62
2019-06-10T15:51:17.466Z,99559.05
2019-06-10T15:53:46.922Z,99556.41
2019-06-10T15:56:35.396Z,99557.85
2019-06-10T15:58:49.123Z,99555.28
2019-06-10T16:01:22.641Z,99558.59
2019-06-10T16:03:52.852Z,99556.17
2019-06-10T16:06:24.367Z,99557.85
2019-06-10T16:08:54.699Z,99561.79
2019-06-10T16:11:27.028Z,99565.50
2019-06-10T16:13:56.931Z,99568.80
2019-06-10T16:16:27.137Z,99578.02
2019-06-10T16:18:57.387Z,99587.15
2019-06-10T16:21:27.649Z,99588.50
2019-06-10T16:23:57.867Z,99587.08
2019-06-10T16:26:28.064Z,99597.91
2019-06-10T16:28:58.306Z,99597.06
2019-06-10T16:31:28.496Z,99590.72
2019-06-10T16:33:58.715Z,99578.80
2019-06-10T16:36:28.917Z,99587.44
2019-06-10T16:38:59.153Z,99588.85
2019-06-10T16:41:29.346Z,99584.98
2019-06-10T16:43:59.587Z,99582.05
2019-06-10T16:46:32.046Z,99582.11
2019-06-10T16:49:03.250Z,99574.80
2019-06-10T16:51:33.645Z,99577.27
2019-06-10T16:54:03.883Z,99585.17
2019-06-10T16:56:34.081Z,99579.32
2019-06-10T16:59:04.462Z,99577.77
2019-06-10T17:01:34.726Z,99575.69
2019-06-10T17:04:08.034Z,99572.38
2019-06-10T17:06:38.236Z,99565.11
2019-06-10T17:09:09.314Z,99571.56
2019-06-10T17:11:39.581Z,99568.50
2019-06-10T17:14:12.382Z,99573.77
2019-06-10T17:16:41.880Z,99594.23
2019-06-10T17:19:14.253Z,99594.37
2019-06-10T17:21:44.075Z,99591.07
2019-06-10T17:24:14.303Z,99586.56
2019-06-10T17:26:44.596Z,99590.83
2019-06-10T17:29:15.055Z,99596.15
2019-06-10T17:31:45.379Z,99591.66
2019-06-10T17:34:15.596Z,99601.25
2019-06-10T17:36:45.928Z,99601.08
2019-06-10T17:39:17.494Z,99598.03
2019-06-10T17:41:47.972Z,99612.57
2019-06-10T17:44:18.304Z,99602.13
2019-06-10T17:46:48.589Z,99611.04
2019-06-10T17:49:18.952Z,99605.64
2019-06-10T17:51:49.189Z,99611.28
2019-06-10T17:54:19.446Z,99607.45
2019-06-10T17:56:49.667Z,99607.61
2019-06-10T17:59:22.063Z,99605.98
2019-06-10T18:02:02.858Z,99624.84
2019-06-10T18:04:33.708Z,99637.75
2019-06-10T18:07:03.976Z,99632.75
2019-06-10T18:09:36.908Z,99631.72
2019-06-10T18:12:06.186Z,99631.84
2019-06-10T18:14:36.441Z,99623.17
2019-06-10T18:17:06.680Z,99607.03
2019-06-10T18:19:37.554Z,99588.00
2019-06-10T18:22:08.135Z,99588.72
2019-06-10T18:24:38.370Z,99585.14
2019-06-10T18:27:08.972Z,99590.02
2019-06-10T18:29:39.993Z,99589.55
2019-06-10T18:32:12.494Z,99582.23
2019-06-10T18:34:45.763Z,99579.35
2019-06-10T18:37:16.023Z,99576.63
2019-06-10T18:39:46.237Z,99568.55
2019-06-10T18:42:16.477Z,99577.73
2019-06-10T18:44:46.689Z,99580.52
2019-06-10T18:47:16.913Z,99578.75
2019-06-10T18:49:47.136Z,99577.30
2019-06-10T18:52:17.433Z,99569.55
2019-06-10T18:54:47.864Z,99566.30
2019-06-10T18:57:18.099Z,99565.63
2019-06-10T18:59:48.431Z,99554.97
2019-06-10T19:02:19.852Z,99542.32
2019-06-10T19:04:50.155Z,99538.84
2019-06-10T19:07:22.559Z,99541.28
2019-06-10T19:09:52.899Z,99543.69
2019-06-10T19:12:23.402Z,99539.44
2019-06-10T19:14:53.819Z,99538.19
2019-06-10T19:17:24.216Z,99534.75
2019-06-10T19:19:54.756Z,99528.29
2019-06-10T19:22:25.170Z,99530.64
2019-06-10T19:24:55.596Z,99533.36
2019-06-10T19:27:26.451Z,99530.10
2019-06-10T19:29:56.797Z,99520.52
2019-06-10T19:32:27.112Z,99523.25
2019-06-10T19:34:58.409Z,99536.07
2019-06-10T19:37:28.708Z,99543.17
2019-06-10T19:39:59.060Z,99544.73
2019-06-10T19:42:29.422Z,99551.14
2019-06-10T19:44:59.680Z,99554.02
2019-06-10T19:47:32.639Z,99552.89
2019-06-10T19:50:02.986Z,99552.64
2019-06-10T19:52:35.116Z,99555.81
2019-06-10T19:55:07.746Z,99556.81
2019-06-10T19:57:39.374Z,99549.45
2019-06-10T20:00:12.418Z,99552.09
2019-06-10T20:02:46.514Z,99551.66
2019-06-10T20:05:14.130Z,99550.87
2019-06-10T20:07:50.071Z,99541.11
2019-06-10T20:10:16.477Z,99557.72
2019-06-10T20:12:46.804Z,99567.76
2019-06-10T20:15:26.265Z,99566.45
2019-06-10T20:17:56.479Z,99570.77
2019-06-10T20:20:26.683Z,99577.59
2019-06-10T20:22:57.608Z,99573.78
2019-06-10T20:25:27.993Z,99575.44
2019-06-10T20:27:58.221Z,99573.32
2019-06-10T20:30:29.239Z,99565.23
2019-06-10T20:32:59.657Z,99568.17
2019-06-10T20:35:32.475Z,99563.67
2019-06-10T20:38:04.622Z,99556.38
2019-06-10T20:40:35.395Z,99553.62
2019-06-10T20:43:05.702Z,99547.72
2019-06-10T20:45:35.884Z,99543.97
2019-06-10T20:48:06.110Z,99539.61
2019-06-10T20:50:36.300Z,99532.44
2019-06-10T20:53:14.772Z,99518.81
2019-06-10T20:55:43.348Z,99509.34
2019-06-10T20:58:12.293Z,99510.94
2019-06-10T21:00:49.043Z,99504.36
2019-06-10T21:03:14.310Z,99492.69
2019-06-10T21:05:50.139Z,99492.61
2019-06-10T21:08:22.532Z,99501.25
2019-06-10T21:10:54.592Z,99499.81
2019-06-10T21:13:24.302Z,99500.77
2019-06-10T21:15:55.586Z,99496.65
2019-06-10T21:18:26.553Z,99497.55
2019-06-10T21:20:56.785Z,99500.59
2019-06-10T21:23:26.976Z,99505.09
2019-06-10T21:25:57.200Z,99505.75
2019-06-10T21:28:27.464Z,99512.00
2019-06-10T21:30:58.780Z,99513.04
2019-06-10T21:33:29.355Z,99522.84
2019-06-10T21:35:59.570Z,99536.63
2019-06-10T21:38:32.157Z,99546.78
2019-06-10T21:41:03.270Z,99556.77
2019-06-10T21:43:34.630Z,99561.19
2019-06-10T21:46:04.864Z,99562.36
2019-06-10T21:48:35.052Z,99556.22
2019-06-10T21:51:05.335Z,99548.32
2019-06-10T21:53:35.529Z,99543.09
2019-06-10T21:56:05.744Z,99544.92
2019-06-10T21:58:35.956Z,99537.71
2019-06-10T22:01:13.009Z,99527.13
2019-06-10T22:03:38.132Z,99529.42
2019-06-10T22:06:08.353Z,99515.58
2019-06-10T22:08:38.551Z,99496.03
2019-06-10T22:11:08.748Z,99499.15
2019-06-10T22:13:38.951Z,99494.85
2019-06-10T22:16:09.172Z,99502.67
2019-06-10T22:18:39.366Z,99503.41
2019-06-10T22:21:09.584Z,99489.91
2019-06-10T22:23:39.771Z,99486.66
2019-06-10T22:26:12.934Z,99496.96
2019-06-10T22:28:43.289Z,99493.78
2019-06-10T22:31:22.303Z,99493.34
2019-06-10T22:33:47.240Z,99493.59
2019-06-10T22:36:17.461Z,99486.58
2019-06-10T22:38:47.902Z,99493.56
2019-06-10T22:41:18.210Z,99493.64
2019-06-10T22:43:49.367Z,99494.53
2019-06-10T22:46:19.712Z,99500.73
2019-06-10T22:48:51.056Z,99511.06
2019-06-10T22:51:22.679Z,99522.00
2019-06-10T22:53:56.481Z,99521.91
2019-06-10T22:56:25.075Z,99525.39
2019-06-10T22:58:55.971Z,99521.70
2019-06-10T23:01:33.859Z,99521.49
2019-06-10T23:04:00.384Z,99517.31
2019-06-10T23:06:31.017Z,99509.53
2019-06-10T23:09:02.616Z,99508.00
2019-06-10T23:11:34.581Z,99508.88
2019-06-10T23:14:05.845Z,99508.91
2019-06-10T23:16:36.052Z,99504.02
2019-06-10T23:19:06.241Z,99498.33
2019-06-10T23:21:36.459Z,99501.18
2019-06-10T23:24:06.661Z,99502.85
2019-06-10T23:26:36.870Z,99515.47
2019-06-10T23:29:07.067Z,99518.75
2019-06-10T23:31:51.486Z,99509.53
2019-06-10T23:34:09.173Z,99511.02
2019-06-10T23:36:39.389Z,99500.73
2019-06-10T23:39:09.580Z,99503.53
2019-06-10T23:41:39.796Z,99496.49
2019-06-10T23:44:12.116Z,99492.53
2019-06-10T23:46:42.587Z,99495.91
2019-06-10T23:49:12.911Z,99501.48
2019-06-10T23:51:43.142Z,99506.66
2019-06-10T23:54:13.341Z,99510.30
2019-06-10T23:56:43.550Z,99515.96
2019-06-10T23:59:13.754Z,99511.75
